Weather at Manitowoc County Airport

Public forecast

Using degrees Fahrenheit for public forecast. Weather courtesy of forecast.io.

Current aviation weather report (METAR) for Manitowoc County Airport

Retrieved 2021/10/18 06:56 UTC (32 minutes ago):

KMTW 180656Z AUTO 27005KT 10SM CLR 10/03 A3008 RMK AO2 SLP186 T01000033

Aviation forecast (TAF) for Manitowoc County Airport

Retrieved 2021/10/18 06:22 UTC (1 hour ago):

TAF KMTW 180520Z 1806/1906 28004KT P6SM SKC FM181400 22005KT P6SM SKC FM181700 21006G12KT P6SM SKC FM182300 21006KT P6SM SKC